Time;durP1;ratioP1;P1;durP2;ratioP2;P2;SDS_P1;SDS_P2;PMS_P1;PMS_P2;Temp;Humidity;BMP_temperature;BMP_pressure;BME280_temperature;BME280_humidity;BME280_pressure;Samples;Min_cycle;Max_cycle;Signal;HPM_P1;HPM_P2
2023/06/25 00:01:00;;;;;;;8.43;6.72;;;19.80;99.90;;;;;;4879598;29;20467;-79
2023/06/25 00:03:46;;;;;;;11.00;6.72;;;19.70;99.90;;;;;;4880655;29;20072;-79
2023/06/25 00:06:31;;;;;;;8.55;6.07;;;19.60;99.90;;;;;;4871897;29;20040;-79
2023/06/25 00:09:17;;;;;;;8.57;6.07;;;19.50;99.90;;;;;;4871128;29;20049;-79
2023/06/25 00:12:04;;;;;;;8.73;6.43;;;19.60;99.90;;;;;;4853806;29;20041;-79
2023/06/25 00:14:50;;;;;;;9.90;6.78;;;19.60;99.90;;;;;;4879244;29;20045;-79
2023/06/25 00:17:36;;;;;;;7.65;6.35;;;19.50;99.90;;;;;;4878980;29;20048;-79
2023/06/25 00:20:24;;;;;;;10.23;6.75;;;19.40;99.90;;;;;;4886954;29;20044;-78
2023/06/25 00:23:10;;;;;;;;;;;19.40;99.90;;;;;;4894995;29;20115;-79
2023/06/25 00:25:56;;;;;;;8.38;6.20;;;19.40;99.90;;;;;;4921029;29;19918;-79
2023/06/25 00:28:42;;;;;;;7.75;6.18;;;19.40;99.90;;;;;;4898030;29;20040;-79
2023/06/25 00:31:28;;;;;;;11.60;5.85;;;19.40;99.90;;;;;;4908593;29;20048;-79
2023/06/25 00:34:14;;;;;;;9.05;6.35;;;19.40;99.90;;;;;;4915965;29;20051;-79
2023/06/25 00:37:00;;;;;;;9.15;6.63;;;19.40;99.90;;;;;;4916815;29;20040;-79
2023/06/25 00:39:46;;;;;;;12.68;6.97;;;19.40;99.90;;;;;;4902034;29;20044;-78
2023/06/25 00:42:41;;;;;;;8.60;6.38;;;19.30;99.90;;;;;;4914443;29;20040;-78
2023/06/25 00:45:26;;;;;;;10.95;7.22;;;19.20;99.90;;;;;;4903313;29;20122;-79
2023/06/25 00:48:14;;;;;;;8.43;6.60;;;19.20;99.90;;;;;;4918095;29;20086;-78
2023/06/25 00:51:01;;;;;;;7.68;6.75;;;19.10;99.90;;;;;;4902489;29;20040;-78
2023/06/25 00:53:47;;;;;;;8.65;6.75;;;19.00;99.90;;;;;;4920518;29;20063;-78
2023/06/25 00:56:33;;;;;;;9.85;6.30;;;19.00;99.90;;;;;;4909158;29;20112;-78
2023/06/25 00:59:19;;;;;;;9.93;6.90;;;18.90;99.90;;;;;;4919629;29;20484;-79
2023/06/25 01:02:37;;;;;;;9.27;7.60;;;18.90;99.90;;;;;;4902168;29;20411;-79
2023/06/25 01:05:43;;;;;;;9.20;6.82;;;18.80;99.90;;;;;;4902811;29;20043;-79
2023/06/25 01:08:29;;;;;;;10.85;6.82;;;18.80;99.90;;;;;;4904773;29;20040;-79
2023/06/25 01:11:15;;;;;;;10.35;7.30;;;18.80;99.90;;;;;;4888235;29;20060;-79
2023/06/25 01:14:02;;;;;;;13.25;7.43;;;18.80;99.90;;;;;;4913661;29;20039;-79
2023/06/25 01:16:48;;;;;;;8.80;7.17;;;18.70;99.90;;;;;;4903700;29;20574;-79
2023/06/25 01:19:35;;;;;;;8.85;7.38;;;18.70;99.90;;;;;;4911664;29;20044;-79
2023/06/25 01:22:28;;;;;;;12.93;7.43;;;18.70;99.90;;;;;;4910554;29;20131;-79
2023/06/25 01:25:14;;;;;;;11.65;7.43;;;18.70;99.90;;;;;;4888318;29;20044;-79
2023/06/25 01:28:00;;;;;;;12.45;7.82;;;18.70;99.90;;;;;;4896112;29;20044;-79
2023/06/25 01:30:51;;;;;;;11.70;7.15;;;18.60;99.90;;;;;;4918096;29;20059;-79
2023/06/25 01:33:38;;;;;;;10.02;7.13;;;18.60;99.90;;;;;;4909193;29;20044;-79
2023/06/25 01:36:24;;;;;;;10.93;7.80;;;18.60;99.90;;;;;;4918695;29;20044;-79
2023/06/25 01:39:10;;;;;;;11.10;8.43;;;18.60;99.90;;;;;;4928860;29;20038;-79
2023/06/25 01:41:56;;;;;;;13.68;8.10;;;18.60;99.90;;;;;;4924962;29;20123;-79
2023/06/25 01:44:42;;;;;;;11.57;8.00;;;18.60;99.90;;;;;;4903928;29;20515;-79
2023/06/25 01:47:28;;;;;;;12.23;7.63;;;18.50;99.90;;;;;;4887863;29;20139;-79
2023/06/25 01:50:14;;;;;;;10.63;6.70;;;18.60;99.90;;;;;;4912936;29;20044;-79
2023/06/25 01:53:00;;;;;;;10.00;7.35;;;18.50;99.90;;;;;;4916678;29;20556;-79
2023/06/25 01:55:46;;;;;;;11.15;7.85;;;18.50;99.90;;;;;;4907132;29;20051;-79
2023/06/25 01:58:32;;;;;;;10.05;8.18;;;18.60;99.90;;;;;;4892963;29;20051;-79
2023/06/25 02:01:21;;;;;;;10.20;8.32;;;18.60;99.90;;;;;;4894818;29;20493;-78
2023/06/25 02:04:07;;;;;;;11.52;7.32;;;18.50;99.90;;;;;;4905338;29;20036;-78
2023/06/25 02:06:54;;;;;;;10.90;7.05;;;18.50;99.90;;;;;;4903899;29;20044;-78
2023/06/25 02:09:40;;;;;;;13.65;7.95;;;18.50;99.90;;;;;;4917742;29;20051;-78
2023/06/25 02:12:26;;;;;;;9.25;8.05;;;18.50;99.90;;;;;;4900945;29;20055;-78
2023/06/25 02:15:12;;;;;;;11.50;7.22;;;18.50;99.90;;;;;;4918834;29;20079;-78
2023/06/25 02:17:58;;;;;;;10.18;7.32;;;18.40;99.90;;;;;;4908036;29;20159;-79
2023/06/25 02:20:44;;;;;;;12.27;7.85;;;18.40;99.90;;;;;;4922371;29;20047;-78
2023/06/25 02:23:30;;;;;;;9.52;8.10;;;18.40;99.90;;;;;;4904897;29;20036;-78
2023/06/25 02:26:16;;;;;;;10.88;8.40;;;18.40;99.90;;;;;;4898611;29;20107;-78
2023/06/25 02:29:03;;;;;;;10.45;7.47;;;18.30;99.90;;;;;;4910722;29;20044;-78
2023/06/25 02:31:51;;;;;;;12.18;7.75;;;18.30;99.90;;;;;;4922066;29;20055;-79
2023/06/25 02:34:37;;;;;;;12.38;6.97;;;18.30;99.90;;;;;;4912694;29;20107;-79
2023/06/25 02:37:23;;;;;;;9.10;7.00;;;18.30;99.90;;;;;;4918141;29;20044;-79
2023/06/25 02:40:10;;;;;;;9.98;8.05;;;18.30;99.90;;;;;;4902746;29;20541;-78
2023/06/25 02:42:56;;;;;;;15.63;8.70;;;18.30;99.90;;;;;;4903834;29;20055;-79
2023/06/25 02:45:42;;;;;;;10.18;7.95;;;18.20;99.90;;;;;;4910176;29;20077;-79
2023/06/25 02:48:28;;;;;;;10.05;7.95;;;18.20;99.90;;;;;;4908711;29;20050;-78
2023/06/25 02:51:14;;;;;;;12.82;8.10;;;18.20;99.90;;;;;;4910460;29;20050;-79
2023/06/25 02:54:00;;;;;;;14.05;8.43;;;18.20;99.90;;;;;;4914981;29;20086;-79
2023/06/25 02:56:46;;;;;;;9.70;7.47;;;18.10;99.90;;;;;;4917766;29;20056;-79
2023/06/25 02:59:32;;;;;;;10.75;8.05;;;18.10;99.90;;;;;;4897152;29;20039;-79
2023/06/25 03:02:18;;;;;;;13.43;8.60;;;18.10;99.90;;;;;;4911237;29;20463;-79
2023/06/25 03:05:04;;;;;;;10.98;7.82;;;18.10;99.90;;;;;;4907184;29;20063;-79
2023/06/25 03:07:51;;;;;;;14.27;8.50;;;18.10;99.90;;;;;;4904247;29;20470;-79
2023/06/25 03:10:38;;;;;;;10.65;7.65;;;18.10;99.90;;;;;;4900009;29;20138;-79
2023/06/25 03:13:23;;;;;;;10.40;7.95;;;18.10;99.90;;;;;;4905282;29;20055;-79
2023/06/25 03:16:09;;;;;;;14.13;8.23;;;18.10;99.90;;;;;;4902049;29;20039;-79
2023/06/25 03:18:55;;;;;;;13.52;8.25;;;18.10;99.90;;;;;;4904142;29;20466;-79
2023/06/25 03:21:41;;;;;;;13.68;8.32;;;18.10;99.90;;;;;;4901821;29;20064;-79
2023/06/25 03:24:27;;;;;;;16.27;8.75;;;18.00;99.90;;;;;;4887869;29;20383;-79
2023/06/25 03:27:13;;;;;;;10.77;7.50;;;18.00;99.90;;;;;;4882371;29;20124;-79
2023/06/25 03:29:59;;;;;;;10.90;7.80;;;18.00;99.90;;;;;;4897400;29;20434;-79
2023/06/25 03:32:45;;;;;;;11.90;7.90;;;18.00;99.90;;;;;;4885923;29;20052;-78
2023/06/25 03:35:31;;;;;;;10.00;7.60;;;18.00;99.90;;;;;;4895382;29;20040;-78
2023/06/25 03:38:17;;;;;;;13.43;8.00;;;18.00;99.90;;;;;;4886554;29;20133;-78
2023/06/25 03:41:03;;;;;;;11.85;7.95;;;17.90;99.90;;;;;;4878859;29;20075;-78
2023/06/25 03:43:49;;;;;;;12.27;8.88;;;17.90;99.90;;;;;;4903862;29;20150;-78
2023/06/25 03:46:35;;;;;;;15.68;8.07;;;17.90;99.90;;;;;;4888827;29;20506;-78
2023/06/25 03:49:21;;;;;;;15.38;8.10;;;17.90;99.90;;;;;;4902198;29;20112;-78
2023/06/25 03:52:07;;;;;;;15.43;8.18;;;17.80;99.90;;;;;;4886837;29;20135;-78
2023/06/25 03:54:53;;;;;;;13.65;8.40;;;17.80;99.90;;;;;;4894075;29;20044;-78
2023/06/25 03:57:39;;;;;;;12.05;7.90;;;17.80;99.90;;;;;;4895787;29;20084;-78
2023/06/25 04:00:25;;;;;;;11.30;7.43;;;17.80;99.90;;;;;;4889037;29;20107;-78
2023/06/25 04:03:11;;;;;;;11.98;7.90;;;17.80;99.90;;;;;;4884025;29;20051;-78
2023/06/25 04:05:57;;;;;;;9.55;7.53;;;17.80;99.90;;;;;;4899671;29;20080;-78
2023/06/25 04:08:43;;;;;;;10.68;7.57;;;17.90;99.90;;;;;;4883760;29;20048;-79
2023/06/25 04:11:29;;;;;;;14.95;7.90;;;17.90;99.90;;;;;;4871862;29;20052;-79
2023/06/25 04:14:15;;;;;;;10.95;7.40;;;17.90;99.90;;;;;;4903838;29;20331;-79
2023/06/25 04:17:01;;;;;;;11.00;8.00;;;17.90;99.90;;;;;;4883691;29;20055;-78
2023/06/25 04:19:47;;;;;;;12.63;7.97;;;17.90;99.90;;;;;;4897473;29;20095;-78
2023/06/25 04:22:33;;;;;;;13.52;8.05;;;17.90;99.90;;;;;;4905582;29;20036;-77
2023/06/25 04:25:19;;;;;;;10.88;7.05;;;17.90;99.90;;;;;;4886452;29;20575;-78
2023/06/25 04:28:05;;;;;;;12.05;8.23;;;17.90;99.90;;;;;;4905889;29;20051;-78
2023/06/25 04:30:51;;;;;;;10.35;8.23;;;18.00;99.90;;;;;;4896429;29;20048;-78
2023/06/25 04:33:41;;;;;;;12.00;8.60;;;17.90;99.90;;;;;;4887524;29;20047;-78
2023/06/25 04:36:27;;;;;;;12.18;7.75;;;18.00;99.90;;;;;;4903771;29;20596;-79
2023/06/25 04:39:13;;;;;;;10.77;7.75;;;18.00;99.90;;;;;;4905423;29;20052;-78
2023/06/25 04:41:59;;;;;;;12.18;7.47;;;18.10;99.90;;;;;;4894703;29;20076;-78
2023/06/25 04:44:45;;;;;;;9.57;7.50;;;18.10;99.90;;;;;;4876577;29;20041;-78
2023/06/25 04:47:32;;;;;;;11.63;8.13;;;18.20;99.90;;;;;;4871638;29;20058;-78
2023/06/25 04:50:18;;;;;;;11.25;7.40;;;18.20;99.90;;;;;;4896476;29;20052;-78
2023/06/25 04:53:04;;;;;;;10.93;7.97;;;18.30;99.90;;;;;;4890451;29;20040;-79
2023/06/25 04:55:50;;;;;;;11.27;7.55;;;18.30;99.90;;;;;;4896021;29;20144;-79
2023/06/25 04:58:37;;;;;;;11.07;7.38;;;18.30;99.90;;;;;;4889406;29;20359;-79
2023/06/25 05:01:23;;;;;;;10.98;6.90;;;18.40;99.90;;;;;;4889871;29;20052;-79
2023/06/25 05:04:09;;;;;;;8.98;7.18;;;18.40;99.90;;;;;;4884966;29;20056;-79
2023/06/25 05:06:56;;;;;;;9.73;7.35;;;18.40;99.90;;;;;;4886668;29;20122;-79
2023/06/25 05:09:43;;;;;;;11.43;7.75;;;18.50;99.90;;;;;;4906697;29;20091;-79
2023/06/25 05:12:29;;;;;;;12.03;7.17;;;18.50;99.90;;;;;;4901117;29;20044;-79
2023/06/25 05:15:16;;;;;;;9.93;7.05;;;18.60;99.90;;;;;;4904690;29;20044;-79
2023/06/25 05:18:02;;;;;;;12.43;7.97;;;18.60;99.90;;;;;;4886186;29;20133;-79
2023/06/25 05:20:48;;;;;;;9.02;6.90;;;18.60;99.90;;;;;;4912503;29;20438;-79
2023/06/25 05:23:41;;;;;;;8.95;6.57;;;18.70;99.90;;;;;;4893533;29;20037;-79
2023/06/25 05:26:27;;;;;;;10.98;6.95;;;18.70;99.90;;;;;;4900623;29;20072;-79
2023/06/25 05:29:13;;;;;;;10.73;7.18;;;18.80;99.90;;;;;;4892161;29;20050;-78
2023/06/25 05:31:59;;;;;;;8.85;6.90;;;18.80;99.90;;;;;;4884689;29;20453;-78
2023/06/25 05:34:45;;;;;;;10.63;6.38;;;18.80;99.90;;;;;;4892340;29;20057;-79
2023/06/25 05:37:31;;;;;;;8.95;7.45;;;18.90;99.90;;;;;;4896263;29;20111;-80
2023/06/25 05:40:17;;;;;;;11.63;7.63;;;18.90;99.90;;;;;;4887136;29;20477;-79
2023/06/25 05:43:03;;;;;;;11.40;7.18;;;18.90;99.90;;;;;;4884311;29;20040;-79
2023/06/25 05:45:49;;;;;;;10.57;7.65;;;18.90;99.90;;;;;;4890374;29;20033;-79
2023/06/25 05:48:35;;;;;;;10.05;7.55;;;19.00;99.90;;;;;;4897296;29;20060;-79
2023/06/25 05:51:21;;;;;;;9.93;7.03;;;19.00;99.90;;;;;;4871467;29;20049;-79
2023/06/25 05:54:07;;;;;;;9.18;6.93;;;19.00;99.90;;;;;;4912205;29;20052;-79
2023/06/25 05:56:53;;;;;;;14.85;8.07;;;19.10;99.90;;;;;;4883340;29;20108;-79
2023/06/25 05:59:39;;;;;;;9.93;7.13;;;19.10;99.90;;;;;;4896924;29;20059;-80
2023/06/25 06:02:25;;;;;;;10.88;6.63;;;19.20;99.90;;;;;;4864401;29;20061;-79
2023/06/25 06:05:11;;;;;;;13.35;7.78;;;19.20;99.90;;;;;;4884200;29;20106;-78
2023/06/25 06:07:57;;;;;;;8.90;6.57;;;19.30;99.90;;;;;;4888310;29;20067;-79
2023/06/25 06:10:43;;;;;;;9.43;6.93;;;19.30;99.90;;;;;;4882465;29;20482;-78
2023/06/25 06:13:29;;;;;;;10.55;6.75;;;19.40;99.90;;;;;;4911273;29;20120;-78
2023/06/25 06:16:15;;;;;;;12.60;7.28;;;19.40;99.90;;;;;;4889791;29;20123;-79
2023/06/25 06:19:01;;;;;;;10.88;6.32;;;19.40;99.90;;;;;;4914575;29;20059;-78
2023/06/25 06:21:47;;;;;;;8.48;6.60;;;19.50;99.90;;;;;;4883805;29;20060;-80
2023/06/25 06:24:33;;;;;;;10.02;7.22;;;19.60;99.90;;;;;;4884401;29;20044;-79
2023/06/25 06:27:19;;;;;;;7.93;6.28;;;19.60;99.90;;;;;;4893918;29;20454;-78
2023/06/25 06:30:05;;;;;;;10.10;6.60;;;19.70;99.90;;;;;;4891063;29;20406;-79
2023/06/25 06:32:51;;;;;;;10.07;6.25;;;19.70;99.90;;;;;;4875988;29;20040;-79
2023/06/25 06:35:37;;;;;;;6.55;5.63;;;19.80;99.90;;;;;;4872802;29;20054;-79
2023/06/25 06:38:23;;;;;;;10.48;6.82;;;19.80;99.90;;;;;;4883266;29;20108;-80
2023/06/25 06:41:09;;;;;;;10.23;6.30;;;20.00;99.90;;;;;;4886626;29;20045;-80
2023/06/25 06:44:09;;;;;;;9.63;6.53;;;20.00;99.90;;;;;;4907624;29;20083;-79
2023/06/25 06:46:55;;;;;;;13.20;7.68;;;20.00;99.90;;;;;;4894839;29;20044;-79
2023/06/25 06:49:41;;;;;;;13.25;8.30;;;20.10;99.90;;;;;;4895904;29;20073;-79
2023/06/25 06:52:27;;;;;;;13.85;8.95;;;20.20;99.90;;;;;;4896515;29;20048;-79
2023/06/25 06:55:13;;;;;;;19.90;11.40;;;20.20;99.90;;;;;;4888850;29;20608;-79
2023/06/25 06:57:59;;;;;;;22.60;13.57;;;20.30;99.90;;;;;;4889624;29;20060;-79
2023/06/25 07:00:45;;;;;;;24.73;12.73;;;20.30;99.90;;;;;;4897940;29;20040;-79
2023/06/25 07:03:31;;;;;;;19.65;12.20;;;20.50;99.90;;;;;;4877000;29;20048;-79
2023/06/25 07:06:17;;;;;;;18.77;12.77;;;20.50;99.90;;;;;;4905228;29;20122;-79
2023/06/25 07:09:03;;;;;;;19.13;11.80;;;20.50;99.90;;;;;;4885856;29;20467;-80
2023/06/25 07:11:49;;;;;;;18.27;10.63;;;20.60;99.90;;;;;;4881446;29;20059;-79
2023/06/25 07:14:35;;;;;;;13.05;8.88;;;20.70;99.90;;;;;;4901802;29;20490;-78
2023/06/25 07:17:21;;;;;;;13.77;8.85;;;20.80;99.90;;;;;;4883162;29;20135;-78
2023/06/25 07:20:08;;;;;;;13.23;7.57;;;20.90;99.90;;;;;;4898900;29;20453;-78
2023/06/25 07:22:54;;;;;;;10.38;6.90;;;20.90;99.90;;;;;;4888873;29;20104;-79
2023/06/25 07:25:40;;;;;;;12.13;6.88;;;20.90;99.90;;;;;;4890780;29;20045;-80
2023/06/25 07:28:26;;;;;;;11.45;7.05;;;21.10;99.90;;;;;;4899838;29;20063;-79
2023/06/25 07:31:12;;;;;;;8.25;6.03;;;21.10;99.90;;;;;;4909137;29;20355;-79
2023/06/25 07:33:58;;;;;;;10.38;5.72;;;21.20;99.90;;;;;;4885608;29;20041;-79
2023/06/25 07:36:44;;;;;;;9.77;5.75;;;21.20;99.90;;;;;;4878126;29;20455;-79
2023/06/25 07:39:31;;;;;;;10.35;6.00;;;21.30;99.90;;;;;;4885581;29;20041;-79
2023/06/25 07:42:17;;;;;;;7.90;5.90;;;21.50;99.90;;;;;;4897163;29;20037;-79
2023/06/25 07:45:04;;;;;;;9.93;6.03;;;21.60;99.90;;;;;;4886948;29;20084;-79
2023/06/25 07:47:50;;;;;;;12.27;6.03;;;21.60;99.90;;;;;;4902622;29;20131;-79
2023/06/25 07:50:37;;;;;;;7.28;5.15;;;21.60;99.90;;;;;;4891457;29;20493;-79
2023/06/25 07:53:23;;;;;;;9.98;5.63;;;21.60;99.90;;;;;;4890665;29;20051;-78
2023/06/25 07:56:09;;;;;;;9.35;5.00;;;21.70;99.90;;;;;;4902435;29;20157;-79
2023/06/25 07:58:55;;;;;;;8.10;5.00;;;21.70;99.90;;;;;;4894690;29;20127;-79
2023/06/25 08:01:41;;;;;;;7.38;5.10;;;21.80;99.90;;;;;;4900395;29;20044;-80
2023/06/25 08:04:27;;;;;;;8.13;5.00;;;21.80;99.90;;;;;;4885378;29;20051;-79
2023/06/25 08:07:13;;;;;;;7.63;5.28;;;21.80;99.90;;;;;;4884609;29;20056;-79
2023/06/25 08:09:59;;;;;;;7.45;5.18;;;22.10;99.90;;;;;;4901247;29;20047;-79
2023/06/25 08:12:45;;;;;;;7.55;4.90;;;22.00;99.90;;;;;;4892648;29;20049;-79
2023/06/25 08:15:34;;;;;;;6.80;4.82;;;22.20;99.90;;;;;;4896759;29;20036;-78
2023/06/25 08:18:20;;;;;;;7.35;4.28;;;22.30;99.90;;;;;;4905628;29;20054;-79
2023/06/25 08:21:07;;;;;;;8.02;5.10;;;22.40;99.90;;;;;;4896876;29;20112;-78
2023/06/25 08:23:53;;;;;;;8.63;4.80;;;22.40;99.90;;;;;;4862519;29;20692;-78
2023/06/25 08:26:39;;;;;;;6.43;4.45;;;22.50;99.90;;;;;;4883776;29;20384;-77
2023/06/25 08:29:25;;;;;;;7.30;5.13;;;22.50;99.90;;;;;;4884023;29;20059;-79
2023/06/25 08:32:11;;;;;;;7.93;5.13;;;22.60;99.90;;;;;;4914835;29;20040;-79
2023/06/25 08:34:56;;;;;;;7.63;4.68;;;22.70;99.90;;;;;;4887923;29;20139;-79
2023/06/25 08:37:42;;;;;;;7.13;5.20;;;22.70;99.90;;;;;;4886313;29;20054;-79
2023/06/25 08:40:29;;;;;;;6.32;4.75;;;22.70;99.90;;;;;;4905278;29;20540;-79
2023/06/25 08:43:15;;;;;;;5.82;4.57;;;22.80;99.90;;;;;;4887576;29;20052;-79
2023/06/25 08:46:02;;;;;;;5.40;4.38;;;23.00;99.00;;;;;;4903459;29;20183;-78
2023/06/25 08:48:48;;;;;;;5.57;4.70;;;23.10;98.80;;;;;;4902604;29;20044;-78
2023/06/25 08:51:34;;;;;;;6.50;4.80;;;23.20;99.00;;;;;;4879408;29;20439;-78
2023/06/25 08:54:20;;;;;;;6.47;4.72;;;23.20;98.00;;;;;;4883706;29;20056;-78
2023/06/25 08:57:07;;;;;;;9.55;4.85;;;23.20;99.20;;;;;;4886502;29;20062;-78
2023/06/25 08:59:53;;;;;;;5.82;4.38;;;23.30;99.40;;;;;;4873737;29;20135;-78
2023/06/25 09:02:39;;;;;;;5.65;4.50;;;23.30;98.60;;;;;;4893238;29;20609;-78
2023/06/25 09:05:26;;;;;;;9.85;4.97;;;23.40;98.30;;;;;;4881924;29;20036;-79
2023/06/25 09:08:15;;;;;;;7.47;4.80;;;23.40;99.00;;;;;;4890661;29;20083;-78
2023/06/25 09:11:01;;;;;;;7.07;4.47;;;23.60;97.90;;;;;;4887848;29;20104;-79
2023/06/25 09:13:47;;;;;;;6.45;4.70;;;23.60;98.50;;;;;;4879707;29;20372;-80
2023/06/25 09:16:44;;;;;;;4.95;4.45;;;23.60;97.50;;;;;;4873993;29;20493;-81
2023/06/25 09:19:30;;;;;;;6.45;4.60;;;23.70;98.10;;;;;;4883036;29;20083;-81
2023/06/25 09:22:16;;;;;;;5.05;4.15;;;23.80;98.10;;;;;;4898027;29;20047;-80
2023/06/25 09:25:02;;;;;;;6.15;4.50;;;23.70;97.70;;;;;;4884562;29;20500;-80
2023/06/25 09:27:48;;;;;;;5.97;4.43;;;23.90;96.70;;;;;;4882870;29;20054;-81
2023/06/25 09:30:35;;;;;;;4.85;3.85;;;24.00;95.40;;;;;;4859084;29;20154;-80
2023/06/25 09:33:21;;;;;;;6.05;3.60;;;24.00;94.80;;;;;;4896288;29;20044;-80
2023/06/25 09:36:08;;;;;;;4.80;4.10;;;24.00;94.60;;;;;;4911513;29;20115;-80
2023/06/25 09:38:54;;;;;;;5.38;4.00;;;24.00;94.60;;;;;;4895297;29;20096;-79
2023/06/25 09:41:43;;;;;;;4.95;3.75;;;24.10;93.80;;;;;;4903553;29;20044;-80
2023/06/25 09:44:29;;;;;;;4.70;3.65;;;24.10;95.80;;;;;;4873630;29;20067;-79
2023/06/25 09:47:15;;;;;;;5.00;4.45;;;24.20;94.50;;;;;;4882981;29;20128;-80
2023/06/25 09:50:01;;;;;;;6.75;4.05;;;24.30;93.30;;;;;;4875052;29;20511;-80
2023/06/25 09:52:53;;;;;;;5.40;4.03;;;24.30;93.20;;;;;;4895772;29;20490;-79
2023/06/25 09:55:40;;;;;;;5.90;4.55;;;24.40;93.50;;;;;;4886150;29;20475;-80
2023/06/25 09:58:27;;;;;;;5.68;4.18;;;24.40;94.60;;;;;;4905086;29;20040;-80
2023/06/25 10:01:13;;;;;;;6.07;4.43;;;24.50;93.80;;;;;;4882335;29;20044;-80
2023/06/25 10:03:59;;;;;;;6.47;3.78;;;24.70;92.50;;;;;;4899233;29;20048;-80
2023/06/25 10:06:45;;;;;;;5.30;4.05;;;24.50;93.30;;;;;;4883552;29;20044;-80
2023/06/25 10:09:31;;;;;;;6.28;3.75;;;24.60;93.40;;;;;;4880461;29;20158;-79
2023/06/25 10:12:18;;;;;;;6.95;3.75;;;24.70;92.80;;;;;;4889141;29;20493;-79
2023/06/25 10:15:04;;;;;;;5.03;3.65;;;24.80;93.20;;;;;;4894042;29;20560;-79
2023/06/25 10:17:50;;;;;;;5.55;3.47;;;24.80;92.40;;;;;;4922698;29;20097;-78
2023/06/25 10:20:37;;;;;;;5.18;4.00;;;24.70;92.30;;;;;;4888208;29;20063;-79
2023/06/25 10:23:23;;;;;;;5.53;3.65;;;24.90;93.00;;;;;;4872797;29;20084;-79
2023/06/25 10:26:12;;;;;;;4.90;3.88;;;25.10;93.30;;;;;;4882783;29;20092;-79
2023/06/25 10:29:06;;;;;;;4.93;3.60;;;25.20;92.30;;;;;;4877610;29;20056;-79
2023/06/25 10:31:52;;;;;;;4.93;3.45;;;25.20;91.20;;;;;;4889603;29;20044;-79
2023/06/25 10:34:39;;;;;;;5.15;3.63;;;25.30;91.40;;;;;;4902372;29;20037;-79
2023/06/25 10:37:32;;;;;;;4.93;3.90;;;25.30;91.30;;;;;;4900361;29;20048;-80
2023/06/25 10:40:20;;;;;;;4.30;3.42;;;25.40;91.70;;;;;;4886702;29;20347;-80
2023/06/25 10:43:06;;;;;;;4.47;3.10;;;25.30;91.60;;;;;;4883991;29;20418;-80
2023/06/25 10:45:53;;;;;;;6.00;3.53;;;25.40;91.70;;;;;;4893278;29;20313;-79
2023/06/25 10:48:44;;;;;;;4.80;3.95;;;25.40;90.80;;;;;;4891208;29;20051;-79
2023/06/25 10:51:30;;;;;;;6.03;3.90;;;25.60;91.90;;;;;;4887570;29;20131;-79
2023/06/25 10:54:20;;;;;;;5.88;3.25;;;25.80;92.00;;;;;;4897210;29;20091;-79
2023/06/25 10:57:10;;;;;;;4.72;3.35;;;25.90;91.30;;;;;;4890544;29;20048;-78
2023/06/25 10:59:56;;;;;;;4.30;3.10;;;26.00;90.20;;;;;;4893437;29;20375;-79
2023/06/25 11:02:41;;;;;;;4.88;3.20;;;26.00;91.10;;;;;;4896308;29;20047;-78
2023/06/25 11:05:38;;;;;;;3.50;2.90;;;26.10;90.40;;;;;;4886665;29;20491;-79
2023/06/25 11:08:24;;;;;;;4.93;3.10;;;26.00;91.00;;;;;;4890263;29;20048;-80
2023/06/25 11:11:10;;;;;;;5.32;3.08;;;26.00;90.30;;;;;;4877434;29;20052;-80
2023/06/25 11:13:56;;;;;;;4.07;2.78;;;26.10;88.70;;;;;;4887638;29;20104;-80
2023/06/25 11:16:48;;;;;;;3.22;2.70;;;26.10;90.00;;;;;;4886712;29;20040;-80
2023/06/25 11:19:34;;;;;;;4.20;3.08;;;26.30;88.90;;;;;;4890824;29;20055;-80
2023/06/25 11:22:21;;;;;;;4.47;3.10;;;26.40;87.90;;;;;;4890329;29;20115;-80
2023/06/25 11:25:07;;;;;;;3.58;2.80;;;26.40;85.90;;;;;;4898737;29;20503;-80
2023/06/25 11:28:02;;;;;;;3.67;3.03;;;26.50;89.00;;;;;;4897815;29;20048;-80
2023/06/25 11:30:49;;;;;;;3.95;2.63;;;26.70;85.50;;;;;;4905607;29;20419;-80
2023/06/25 11:33:35;;;;;;;3.92;2.88;;;26.60;86.70;;;;;;4900173;29;20044;-80
2023/06/25 11:36:25;;;;;;;4.22;2.78;;;26.70;85.70;;;;;;4889942;29;20461;-79
2023/06/25 11:39:11;;;;;;;5.28;2.85;;;26.80;87.00;;;;;;4898026;29;20052;-80
2023/06/25 11:41:57;;;;;;;3.78;3.00;;;26.90;87.30;;;;;;4886601;29;20056;-80
2023/06/25 11:44:43;;;;;;;4.05;2.78;;;27.10;89.20;;;;;;4904120;29;20040;-80
2023/06/25 11:47:29;;;;;;;5.82;2.97;;;27.10;86.20;;;;;;4891974;29;20067;-80
2023/06/25 11:50:15;;;;;;;4.38;2.90;;;27.10;89.30;;;;;;4876935;29;20148;-80
2023/06/25 11:53:01;;;;;;;4.53;2.70;;;27.10;87.00;;;;;;4887834;29;20513;-80
2023/06/25 11:55:47;;;;;;;4.57;3.13;;;27.40;86.60;;;;;;4892250;29;20131;-80
2023/06/25 11:58:33;;;;;;;4.15;3.15;;;27.30;85.70;;;;;;4883158;29;20048;-80
2023/06/25 12:01:19;;;;;;;5.07;3.50;;;27.30;85.90;;;;;;4886557;29;20036;-80
2023/06/25 12:04:05;;;;;;;4.57;2.92;;;27.30;84.30;;;;;;4878215;29;20048;-80
2023/06/25 12:06:51;;;;;;;4.25;2.80;;;27.30;86.90;;;;;;4886273;29;20547;-80
2023/06/25 12:09:37;;;;;;;3.70;3.15;;;27.20;87.60;;;;;;4898386;29;20098;-80
2023/06/25 12:12:26;;;;;;;3.92;2.97;;;27.50;87.80;;;;;;4905969;29;20063;-80
2023/06/25 12:15:12;;;;;;;4.25;3.25;;;27.50;86.70;;;;;;4916224;29;20378;-80
2023/06/25 12:17:58;;;;;;;3.22;2.80;;;27.60;84.90;;;;;;4872603;29;20059;-80
2023/06/25 12:20:44;;;;;;;3.83;2.92;;;27.80;86.60;;;;;;4877773;29;20124;-80
2023/06/25 12:23:30;;;;;;;3.78;2.92;;;27.80;84.60;;;;;;4887628;29;20129;-81
2023/06/25 12:26:15;;;;;;;4.25;3.20;;;27.80;86.10;;;;;;4883033;29;20040;-80
2023/06/25 12:29:01;;;;;;;4.43;3.38;;;27.80;84.00;;;;;;4876708;29;20386;-80
2023/06/25 12:31:47;;;;;;;4.20;2.90;;;27.90;83.30;;;;;;4891676;29;20119;-80
2023/06/25 12:34:36;;;;;;;4.13;3.03;;;28.10;87.90;;;;;;4893523;29;20048;-80
2023/06/25 12:37:22;;;;;;;4.75;3.10;;;28.10;82.40;;;;;;4900414;29;20068;-80
2023/06/25 12:40:09;;;;;;;5.20;3.17;;;28.10;83.80;;;;;;4884830;29;20055;-80
2023/06/25 12:42:56;;;;;;;5.10;2.97;;;28.30;82.90;;;;;;4900399;29;20051;-80
2023/06/25 12:45:42;;;;;;;;;;;28.20;81.50;;;;;;4884934;29;20072;-80
2023/06/25 12:48:28;;;;;;;3.42;2.58;;;28.10;81.80;;;;;;4890510;29;19915;-80
2023/06/25 12:51:14;;;;;;;4.82;2.92;;;28.20;81.90;;;;;;4900795;29;20047;-80
2023/06/25 12:54:00;;;;;;;4.63;2.80;;;28.30;81.00;;;;;;4880862;29;20055;-80
2023/06/25 12:56:46;;;;;;;4.88;3.20;;;28.20;82.10;;;;;;4896712;29;20423;-80
2023/06/25 12:59:32;;;;;;;4.18;3.00;;;28.40;83.20;;;;;;4892800;29;20406;-80
2023/06/25 13:02:18;;;;;;;3.88;3.30;;;28.60;83.60;;;;;;4890078;29;20036;-80
2023/06/25 13:05:05;;;;;;;5.57;3.15;;;28.60;81.00;;;;;;4872908;29;20044;-80
2023/06/25 13:07:51;;;;;;;3.65;2.60;;;28.30;80.80;;;;;;4909213;29;20051;-81
2023/06/25 13:10:36;;;;;;;4.57;3.03;;;28.10;81.80;;;;;;4901115;29;20055;-81
2023/06/25 13:13:22;;;;;;;4.82;3.00;;;28.00;82.10;;;;;;4886314;29;20044;-81
2023/06/25 13:16:08;;;;;;;3.90;3.20;;;28.00;82.80;;;;;;4872274;29;20055;-81
2023/06/25 13:18:54;;;;;;;5.43;3.53;;;28.00;81.70;;;;;;4884713;29;20056;-81
2023/06/25 13:21:40;;;;;;;5.15;3.38;;;27.90;82.20;;;;;;4908276;29;20147;-81
2023/06/25 13:24:26;;;;;;;5.50;3.10;;;28.00;82.90;;;;;;4900522;29;20072;-81
2023/06/25 13:27:12;;;;;;;4.70;3.40;;;28.10;82.70;;;;;;4891659;29;20155;-82
2023/06/25 13:29:58;;;;;;;4.63;3.38;;;28.00;81.70;;;;;;4885144;29;20048;-82
2023/06/25 13:32:44;;;;;;;3.90;3.00;;;28.00;81.40;;;;;;4876349;29;20485;-82
2023/06/25 13:35:30;;;;;;;5.40;3.15;;;27.90;82.40;;;;;;4884962;29;20053;-82
2023/06/25 13:38:16;;;;;;;5.22;3.00;;;27.90;84.30;;;;;;4887446;29;20446;-81
2023/06/25 13:41:02;;;;;;;5.72;3.47;;;27.80;81.80;;;;;;4894439;29;20064;-82
2023/06/25 13:43:48;;;;;;;6.13;3.60;;;27.70;82.40;;;;;;4884966;29;20037;-81
2023/06/25 13:46:34;;;;;;;5.10;3.55;;;27.70;83.90;;;;;;4891212;29;20466;-81
2023/06/25 13:49:20;;;;;;;6.68;3.45;;;27.70;83.20;;;;;;4891268;29;20056;-82
2023/06/25 13:52:08;;;;;;;4.85;3.55;;;27.70;85.30;;;;;;4884798;29;20050;-82
2023/06/25 13:54:54;;;;;;;4.38;3.67;;;27.50;83.20;;;;;;4872025;29;20044;-82
2023/06/25 13:57:40;;;;;;;5.45;3.40;;;27.50;85.20;;;;;;4899541;29;20054;-82
2023/06/25 14:00:26;;;;;;;4.28;3.60;;;27.50;85.10;;;;;;4883139;29;20040;-82
2023/06/25 14:03:12;;;;;;;5.55;3.40;;;27.40;86.50;;;;;;4875753;29;20052;-82
2023/06/25 14:05:59;;;;;;;4.78;3.75;;;27.50;87.40;;;;;;4883640;29;20040;-82
2023/06/25 14:08:45;;;;;;;5.00;3.47;;;27.50;88.80;;;;;;4880329;29;20127;-81
2023/06/25 14:11:31;;;;;;;4.53;3.67;;;27.50;87.90;;;;;;4897713;29;20072;-81
2023/06/25 14:14:17;;;;;;;6.82;4.00;;;27.50;86.60;;;;;;4887053;29;20044;-81
2023/06/25 14:17:03;;;;;;;4.45;3.47;;;27.40;86.80;;;;;;4880898;29;20044;-81
2023/06/25 14:19:49;;;;;;;4.57;3.42;;;27.40;86.00;;;;;;4892289;29;20048;-81
2023/06/25 14:22:35;;;;;;;6.18;3.75;;;27.50;85.20;;;;;;4883895;29;20044;-81